Time;durP1;ratioP1;P1;durP2;ratioP2;P2;SDS_P1;SDS_P2;PMS_P1;PMS_P2;Temp;Humidity;BMP_temperature;BMP_pressure;BME280_temperature;BME280_humidity;BME280_pressure;Samples;Min_cycle;Max_cycle;Signal;HPM_P1;HPM_P2
2022/03/19 00:00:34;;;;;;;9.10;3.30;;;;;;;;;;5051427;28;20124;-65
2022/03/19 00:03:00;;;;;;;11.27;3.80;;;;;;;;;;5050859;28;20040;-65
2022/03/19 00:05:27;;;;;;;12.27;3.42;;;;;;;;;;5050854;28;20072;-65
2022/03/19 00:07:53;;;;;;;13.65;3.75;;;;;;;;;;5050458;28;20272;-66
2022/03/19 00:10:21;;;;;;;9.13;4.00;;;;;;;;;;5050450;28;20115;-65
2022/03/19 00:12:48;;;;;;;12.57;3.70;;;;;;;;;;5050458;28;20049;-64
2022/03/19 00:15:16;;;;;;;15.45;4.20;;;;;;;;;;5050446;28;20037;-66
2022/03/19 00:17:42;;;;;;;13.40;4.03;;;;;;;;;;5050853;28;20048;-62
2022/03/19 00:20:08;;;;;;;12.05;3.63;;;;;;;;;;5050571;28;20044;-65
2022/03/19 00:22:34;;;;;;;15.30;3.80;;;;;;;;;;5050911;28;20037;-60
2022/03/19 00:25:00;;;;;;;9.25;3.67;;;;;;;;;;5051157;28;20543;-62
2022/03/19 00:27:27;;;;;;;9.32;3.65;;;;;;;;;;5034031;28;20052;-62
2022/03/19 00:29:53;;;;;;;14.90;3.67;;;;;;;;;;5040329;28;20040;-62
2022/03/19 00:32:19;;;;;;;13.80;3.67;;;;;;;;;;5050304;28;20125;-61
2022/03/19 00:34:45;;;;;;;8.27;3.15;;;;;;;;;;5049836;28;20040;-61
2022/03/19 00:37:12;;;;;;;13.02;4.05;;;;;;;;;;5050893;28;20071;-62
2022/03/19 00:39:38;;;;;;;8.70;3.15;;;;;;;;;;5050570;28;20083;-61
2022/03/19 00:42:04;;;;;;;12.18;4.03;;;;;;;;;;5050249;28;20124;-62
2022/03/19 00:44:30;;;;;;;14.32;3.50;;;;;;;;;;5050577;28;20096;-62
2022/03/19 00:46:56;;;;;;;8.27;3.13;;;;;;;;;;5050442;28;20045;-62
2022/03/19 00:49:22;;;;;;;8.30;3.80;;;;;;;;;;5032337;28;20073;-61
2022/03/19 00:51:48;;;;;;;12.30;4.18;;;;;;;;;;5050280;28;20052;-62
2022/03/19 00:54:15;;;;;;;10.95;3.83;;;;;;;;;;5050781;28;20041;-62
2022/03/19 00:56:42;;;;;;;9.32;3.30;;;;;;;;;;5032591;28;20079;-61
2022/03/19 00:59:08;;;;;;;12.25;3.20;;;;;;;;;;5050522;28;20045;-62
2022/03/19 01:01:38;;;;;;;10.75;3.70;;;;;;;;;;5033141;28;20397;-63
2022/03/19 01:04:04;;;;;;;10.13;3.83;;;;;;;;;;5050659;28;20040;-61
2022/03/19 01:06:30;;;;;;;12.73;3.78;;;;;;;;;;5050571;28;20047;-62
2022/03/19 01:08:56;;;;;;;12.45;4.43;;;;;;;;;;5048851;28;20084;-62
2022/03/19 01:11:23;;;;;;;11.00;3.70;;;;;;;;;;5030671;28;20433;-61
2022/03/19 01:13:54;;;;;;;14.20;4.05;;;;;;;;;;5049850;28;20040;-63
2022/03/19 01:16:20;;;;;;;12.40;3.47;;;;;;;;;;5032752;28;20190;-61
2022/03/19 01:18:47;;;;;;;10.23;3.67;;;;;;;;;;5050879;28;20211;-62
2022/03/19 01:21:13;;;;;;;12.20;3.90;;;;;;;;;;5053548;28;20040;-62
2022/03/19 01:23:39;;;;;;;11.93;4.10;;;;;;;;;;5053458;28;20163;-62
2022/03/19 01:26:05;;;;;;;12.10;3.90;;;;;;;;;;5053498;28;20045;-61
2022/03/19 01:28:31;;;;;;;11.38;3.80;;;;;;;;;;5053766;28;20056;-61
2022/03/19 01:30:57;;;;;;;10.35;3.85;;;;;;;;;;5053467;28;20047;-62
2022/03/19 01:33:23;;;;;;;13.02;4.50;;;;;;;;;;5053140;28;20037;-62
2022/03/19 01:35:49;;;;;;;13.82;4.25;;;;;;;;;;5053123;28;20049;-62
2022/03/19 01:38:15;;;;;;;16.08;4.78;;;;;;;;;;5035950;28;20458;-62
2022/03/19 01:40:41;;;;;;;12.23;4.28;;;;;;;;;;5053101;28;20048;-62
2022/03/19 01:43:07;;;;;;;10.63;4.45;;;;;;;;;;5052950;28;20040;-63
2022/03/19 01:45:33;;;;;;;12.70;4.20;;;;;;;;;;5035430;28;20131;-62
2022/03/19 01:48:00;;;;;;;10.40;3.95;;;;;;;;;;5053463;28;20084;-62
2022/03/19 01:50:26;;;;;;;11.50;4.38;;;;;;;;;;5035876;28;20052;-63
2022/03/19 01:52:53;;;;;;;10.68;3.90;;;;;;;;;;5053069;28;20123;-63
2022/03/19 01:55:20;;;;;;;15.55;4.38;;;;;;;;;;5052707;28;20116;-62
2022/03/19 01:57:47;;;;;;;13.77;4.20;;;;;;;;;;5035480;28;20053;-62
2022/03/19 02:00:31;;;;;;;9.23;4.20;;;;;;;;;;5053203;28;20037;-62
2022/03/19 02:02:58;;;;;;;19.63;4.90;;;;;;;;;;5053257;28;20036;-62
2022/03/19 02:05:24;;;;;;;12.18;4.35;;;;;;;;;;5052485;28;20036;-60
2022/03/19 02:07:51;;;;;;;15.52;4.15;;;;;;;;;;5053010;28;20041;-62
2022/03/19 02:10:19;;;;;;;13.02;5.05;;;;;;;;;;5052345;28;20043;-61
2022/03/19 02:12:46;;;;;;;11.80;4.05;;;;;;;;;;5052895;28;20079;-62
2022/03/19 02:15:13;;;;;;;12.13;3.83;;;;;;;;;;5052361;28;20037;-61
2022/03/19 02:17:39;;;;;;;14.77;4.55;;;;;;;;;;5052948;28;20126;-62
2022/03/19 02:20:06;;;;;;;7.97;3.50;;;;;;;;;;5052331;28;20446;-62
2022/03/19 02:22:32;;;;;;;11.82;4.68;;;;;;;;;;5052796;28;20041;-60
2022/03/19 02:27:43;;;;;;;11.13;4.95;;;;;;;;;;5051646;28;20508;-62
2022/03/19 02:30:10;;;;;;;11.63;4.32;;;;;;;;;;5051469;28;20048;-62
2022/03/19 02:32:39;;;;;;;14.55;4.57;;;;;;;;;;5052470;28;20413;-62
2022/03/19 02:35:05;;;;;;;14.77;4.53;;;;;;;;;;5052125;28;20486;-62
2022/03/19 02:37:41;;;;;;;10.57;4.50;;;;;;;;;;5052073;28;20056;-61
2022/03/19 02:40:12;;;;;;;14.25;4.80;;;;;;;;;;5052579;28;20060;-62
2022/03/19 02:42:38;;;;;;;10.00;3.92;;;;;;;;;;5035181;28;20486;-62
2022/03/19 02:45:07;;;;;;;12.57;4.30;;;;;;;;;;5052812;28;20044;-62
2022/03/19 02:47:34;;;;;;;13.32;4.53;;;;;;;;;;5051835;28;20143;-62
2022/03/19 02:50:00;;;;;;;16.60;4.47;;;;;;;;;;5051837;28;20413;-62
2022/03/19 02:52:26;;;;;;;11.18;4.78;;;;;;;;;;5052479;28;20115;-62
2022/03/19 02:54:52;;;;;;;8.82;4.10;;;;;;;;;;5052127;28;20045;-62
2022/03/19 02:57:18;;;;;;;11.88;5.22;;;;;;;;;;5052008;28;20047;-61
2022/03/19 02:59:44;;;;;;;9.13;4.28;;;;;;;;;;5033843;28;20045;-61
2022/03/19 03:02:10;;;;;;;11.82;4.70;;;;;;;;;;5051891;28;20037;-62
2022/03/19 03:04:36;;;;;;;12.73;4.50;;;;;;;;;;5052165;28;20454;-62
2022/03/19 03:07:04;;;;;;;10.82;4.97;;;;;;;;;;5051865;28;20512;-62
2022/03/19 03:09:31;;;;;;;12.88;5.03;;;;;;;;;;5052227;28;20036;-62
2022/03/19 03:11:58;;;;;;;7.75;4.35;;;;;;;;;;5052062;28;20120;-61
2022/03/19 03:14:24;;;;;;;14.07;4.90;;;;;;;;;;5051898;28;20068;-61
2022/03/19 03:16:53;;;;;;;13.57;4.85;;;;;;;;;;5050783;28;20518;-61
2022/03/19 03:19:19;;;;;;;10.13;4.80;;;;;;;;;;5035099;28;20382;-62
2022/03/19 03:21:46;;;;;;;11.48;4.68;;;;;;;;;;5051528;28;20083;-62
2022/03/19 03:24:13;;;;;;;11.20;5.30;;;;;;;;;;5051861;28;20041;-62
2022/03/19 03:26:39;;;;;;;11.75;4.90;;;;;;;;;;5051404;28;20467;-62
2022/03/19 03:29:06;;;;;;;13.60;5.40;;;;;;;;;;5050918;28;20438;-62
2022/03/19 03:31:32;;;;;;;13.95;4.95;;;;;;;;;;5033474;28;20544;-62
2022/03/19 03:33:58;;;;;;;14.20;5.03;;;;;;;;;;5051402;28;20041;-62
2022/03/19 03:36:24;;;;;;;11.13;5.00;;;;;;;;;;5050888;28;20072;-62
2022/03/19 03:38:50;;;;;;;7.85;5.05;;;;;;;;;;5050275;28;20090;-62
2022/03/19 03:41:16;;;;;;;12.10;4.53;;;;;;;;;;5051151;28;20446;-62
2022/03/19 03:43:43;;;;;;;11.38;4.70;;;;;;;;;;5050625;28;20037;-61
2022/03/19 03:46:09;;;;;;;14.45;5.22;;;;;;;;;;5051522;28;20041;-62
2022/03/19 03:48:36;;;;;;;14.98;5.88;;;;;;;;;;5050294;28;20124;-62
2022/03/19 03:51:03;;;;;;;11.07;5.32;;;;;;;;;;5051148;28;20084;-62
2022/03/19 03:53:29;;;;;;;15.80;5.03;;;;;;;;;;5050958;28;20055;-61
2022/03/19 03:55:55;;;;;;;7.63;4.47;;;;;;;;;;5051049;28;20024;-62
2022/03/19 03:58:21;;;;;;;14.38;5.13;;;;;;;;;;5049673;28;20036;-62
2022/03/19 04:00:47;;;;;;;10.90;4.97;;;;;;;;;;5044274;28;20055;-62
2022/03/19 04:03:14;;;;;;;13.73;5.65;;;;;;;;;;5050879;28;20083;-61
2022/03/19 04:05:40;;;;;;;14.38;5.47;;;;;;;;;;5051054;28;20045;-61
2022/03/19 04:08:06;;;;;;;11.15;5.80;;;;;;;;;;5050042;28;20501;-61
2022/03/19 04:10:32;;;;;;;13.60;5.68;;;;;;;;;;5030946;28;20045;-60
2022/03/19 04:12:59;;;;;;;9.60;5.03;;;;;;;;;;5013037;28;20514;-58
2022/03/19 04:15:25;;;;;;;12.95;5.78;;;;;;;;;;5031089;28;20479;-59
2022/03/19 04:17:51;;;;;;;16.52;6.13;;;;;;;;;;5047131;28;20117;-60
2022/03/19 04:20:18;;;;;;;14.43;5.55;;;;;;;;;;5050588;28;20041;-60
2022/03/19 04:22:45;;;;;;;10.95;5.55;;;;;;;;;;5050843;28;20144;-60
2022/03/19 04:25:15;;;;;;;10.93;5.90;;;;;;;;;;5050704;28;20068;-59
2022/03/19 04:27:42;;;;;;;11.30;5.45;;;;;;;;;;5049944;28;20043;-60
2022/03/19 04:30:12;;;;;;;13.30;5.50;;;;;;;;;;5050434;28;20405;-59
2022/03/19 04:32:46;;;;;;;10.45;5.60;;;;;;;;;;5050169;28;20076;-58
2022/03/19 04:37:59;;;;;;;12.45;5.88;;;;;;;;;;5050687;28;20019;-58
2022/03/19 04:40:25;;;;;;;13.00;6.22;;;;;;;;;;5051307;28;20533;-63
2022/03/19 04:42:51;;;;;;;10.35;5.30;;;;;;;;;;5051661;28;20048;-60
2022/03/19 04:45:19;;;;;;;12.75;6.30;;;;;;;;;;5017533;28;20144;-60
2022/03/19 04:47:45;;;;;;;13.30;5.47;;;;;;;;;;5016976;28;20128;-60
2022/03/19 04:50:11;;;;;;;13.93;5.53;;;;;;;;;;5016689;28;20037;-60
2022/03/19 04:52:37;;;;;;;11.00;6.63;;;;;;;;;;5017068;28;20395;-60
2022/03/19 04:55:04;;;;;;;14.85;5.82;;;;;;;;;;5036227;28;20037;-61
2022/03/19 04:57:30;;;;;;;13.50;5.60;;;;;;;;;;5020421;28;20051;-59
2022/03/19 04:59:58;;;;;;;10.27;5.85;;;;;;;;;;5020489;28;20041;-62
2022/03/19 05:02:24;;;;;;;11.02;5.18;;;;;;;;;;5037219;28;20037;-60
2022/03/19 05:04:54;;;;;;;13.90;6.18;;;;;;;;;;5020609;28;20036;-60
2022/03/19 05:07:21;;;;;;;12.63;5.90;;;;;;;;;;5020607;28;20094;-60
2022/03/19 05:12:33;;;;;;;16.63;5.75;;;;;;;;;;5052744;28;20037;-65
2022/03/19 05:15:00;;;;;;;15.38;6.13;;;;;;;;;;5031185;28;20037;-64
2022/03/19 05:17:32;;;;;;;14.48;6.05;;;;;;;;;;5035317;28;20072;-65
2022/03/19 05:19:59;;;;;;;10.80;5.85;;;;;;;;;;5019884;28;20036;-65
2022/03/19 05:22:26;;;;;;;10.20;5.15;;;;;;;;;;5035699;28;20040;-65
2022/03/19 05:24:52;;;;;;;11.95;5.38;;;;;;;;;;5016767;28;20060;-62
2022/03/19 05:27:18;;;;;;;10.93;5.68;;;;;;;;;;5019425;28;20291;-62
2022/03/19 05:29:44;;;;;;;15.35;6.03;;;;;;;;;;5004258;28;20148;-61
2022/03/19 05:32:10;;;;;;;17.70;5.45;;;;;;;;;;5036389;28;20045;-61
2022/03/19 05:34:36;;;;;;;16.20;5.85;;;;;;;;;;5019780;28;20048;-60
2022/03/19 05:37:04;;;;;;;7.40;5.10;;;;;;;;;;5019459;28;20044;-60
2022/03/19 05:39:34;;;;;;;12.35;5.63;;;;;;;;;;5035879;28;20045;-62
2022/03/19 05:42:00;;;;;;;12.63;5.57;;;;;;;;;;5019923;28;20041;-65
2022/03/19 05:44:26;;;;;;;12.60;4.82;;;;;;;;;;5020597;28;20040;-62
2022/03/19 05:46:52;;;;;;;12.13;5.05;;;;;;;;;;5019943;28;20052;-64
2022/03/19 05:49:18;;;;;;;16.05;5.32;;;;;;;;;;5020315;28;20557;-62
2022/03/19 05:51:45;;;;;;;9.75;5.00;;;;;;;;;;5036398;28;20044;-64
2022/03/19 05:54:11;;;;;;;17.80;5.82;;;;;;;;;;5036689;28;20110;-64
2022/03/19 05:56:37;;;;;;;10.65;4.97;;;;;;;;;;5019829;28;20041;-65
2022/03/19 05:59:04;;;;;;;12.32;5.10;;;;;;;;;;5052991;28;20041;-65
2022/03/19 06:01:30;;;;;;;12.98;5.55;;;;;;;;;;5035698;28;20041;-64
2022/03/19 06:03:57;;;;;;;12.52;5.95;;;;;;;;;;5014715;28;20083;-64
2022/03/19 06:06:24;;;;;;;12.90;5.13;;;;;;;;;;5014230;28;20037;-64
2022/03/19 06:08:50;;;;;;;11.85;5.28;;;;;;;;;;5035337;28;20048;-65
2022/03/19 06:11:16;;;;;;;16.65;5.22;;;;;;;;;;5019012;28;20040;-65
2022/03/19 06:13:43;;;;;;;8.98;4.25;;;;;;;;;;5018743;28;20125;-65
2022/03/19 06:16:09;;;;;;;13.57;5.25;;;;;;;;;;5035555;28;20048;-65
2022/03/19 06:18:35;;;;;;;11.95;4.93;;;;;;;;;;5034855;28;20529;-65
2022/03/19 06:21:01;;;;;;;14.15;4.90;;;;;;;;;;5018857;28;20041;-63
2022/03/19 06:23:27;;;;;;;12.52;5.15;;;;;;;;;;5035867;28;20036;-60
2022/03/19 06:25:53;;;;;;;13.80;4.82;;;;;;;;;;5022188;22;20091;-62
2022/03/19 06:28:19;;;;;;;9.40;5.28;;;;;;;;;;5054795;28;20056;-62
2022/03/19 06:30:46;;;;;;;9.18;4.82;;;;;;;;;;5047945;28;20041;-63
2022/03/19 06:33:12;;;;;;;11.85;5.32;;;;;;;;;;5050935;28;20541;-60
2022/03/19 06:38:27;;;;;;;16.30;5.47;;;;;;;;;;5052907;28;20041;-62
2022/03/19 06:40:53;;;;;;;15.18;5.35;;;;;;;;;;5044993;28;20053;-62
2022/03/19 06:43:19;;;;;;;16.10;5.40;;;;;;;;;;5039609;28;20036;-61
2022/03/19 06:45:46;;;;;;;10.00;5.53;;;;;;;;;;5050873;28;20041;-62
2022/03/19 06:48:12;;;;;;;10.68;5.45;;;;;;;;;;5052911;28;20083;-61
2022/03/19 06:50:38;;;;;;;10.75;5.43;;;;;;;;;;5052851;28;20496;-62
2022/03/19 06:53:04;;;;;;;10.55;5.65;;;;;;;;;;5052420;28;20045;-62
2022/03/19 06:55:31;;;;;;;15.15;6.20;;;;;;;;;;5052294;28;20033;-60
2022/03/19 06:57:57;;;;;;;11.10;5.70;;;;;;;;;;5052722;28;20549;-62
2022/03/19 07:00:23;;;;;;;12.55;5.55;;;;;;;;;;5052999;28;20037;-60
2022/03/19 07:02:53;;;;;;;17.45;6.05;;;;;;;;;;5052626;28;20072;-61
2022/03/19 07:05:30;;;;;;;15.23;5.93;;;;;;;;;;5047240;28;20343;-64
2022/03/19 07:07:57;;;;;;;14.18;5.75;;;;;;;;;;5052054;28;20045;-60
2022/03/19 07:10:23;;;;;;;14.52;5.80;;;;;;;;;;5052044;28;20139;-60
2022/03/19 07:12:53;;;;;;;12.88;5.38;;;;;;;;;;5052071;28;20047;-60
2022/03/19 07:15:20;;;;;;;16.08;5.90;;;;;;;;;;5041365;28;20132;-60
2022/03/19 07:17:48;;;;;;;13.02;5.40;;;;;;;;;;5035583;28;20107;-60
2022/03/19 07:20:14;;;;;;;17.08;6.32;;;;;;;;;;5044967;28;20032;-59
2022/03/19 07:22:53;;;;;;;12.98;5.70;;;;;;;;;;5051094;28;20497;-59
2022/03/19 07:25:20;;;;;;;15.23;5.18;;;;;;;;;;5050800;28;20041;-61
2022/03/19 07:27:46;;;;;;;16.55;5.65;;;;;;;;;;5051484;28;20040;-60
2022/03/19 07:30:13;;;;;;;14.82;6.47;;;;;;;;;;5051154;28;20071;-60
2022/03/19 07:32:39;;;;;;;18.55;5.55;;;;;;;;;;5042781;28;20033;-60
2022/03/19 07:35:06;;;;;;;15.18;5.38;;;;;;;;;;5041490;28;20037;-61
2022/03/19 07:37:33;;;;;;;14.38;5.00;;;;;;;;;;5047484;28;20122;-60
2022/03/19 07:39:59;;;;;;;9.18;5.30;;;;;;;;;;5041713;28;20033;-59
2022/03/19 07:42:25;;;;;;;14.15;5.22;;;;;;;;;;5042940;28;20033;-60
2022/03/19 07:44:52;;;;;;;14.48;5.35;;;;;;;;;;5050091;28;20037;-63
2022/03/19 07:47:18;;;;;;;11.65;4.60;;;;;;;;;;5050872;28;20456;-59
2022/03/19 07:49:44;;;;;;;13.70;4.95;;;;;;;;;;5050961;28;20513;-59
2022/03/19 07:52:11;;;;;;;10.57;5.00;;;;;;;;;;5051753;28;20453;-59
2022/03/19 07:54:37;;;;;;;12.95;4.70;;;;;;;;;;5051252;28;20033;-58
2022/03/19 07:57:04;;;;;;;10.68;4.55;;;;;;;;;;5049497;28;20051;-59
2022/03/19 07:59:30;;;;;;;10.93;4.10;;;;;;;;;;5051494;28;20051;-60
2022/03/19 08:01:56;;;;;;;8.93;5.28;;;;;;;;;;5050755;28;20503;-59
2022/03/19 08:04:22;;;;;;;10.85;4.38;;;;;;;;;;5050561;28;20247;-60
2022/03/19 08:06:53;;;;;;;12.00;3.97;;;;;;;;;;5032519;28;20080;-61
2022/03/19 08:09:20;;;;;;;14.13;4.85;;;;;;;;;;5050328;28;20041;-61
2022/03/19 08:11:47;;;;;;;11.55;4.43;;;;;;;;;;5045285;28;20482;-60
2022/03/19 08:14:16;;;;;;;11.35;4.10;;;;;;;;;;5046272;28;20037;-63
2022/03/19 08:16:46;;;;;;;8.57;4.18;;;;;;;;;;5043860;28;20127;-66
2022/03/19 08:19:12;;;;;;;10.50;4.43;;;;;;;;;;5041196;28;20061;-66
2022/03/19 08:21:39;;;;;;;8.57;4.55;;;;;;;;;;5045341;28;20044;-66
2022/03/19 08:24:06;;;;;;;10.93;4.10;;;;;;;;;;5023534;28;20076;-65
2022/03/19 08:26:32;;;;;;;12.73;4.47;;;;;;;;;;5043478;28;20068;-65
2022/03/19 08:28:58;;;;;;;11.60;4.05;;;;;;;;;;5040677;28;20112;-66
2022/03/19 08:31:24;;;;;;;13.35;3.80;;;;;;;;;;5050789;28;20105;-66
2022/03/19 08:33:51;;;;;;;11.30;4.43;;;;;;;;;;5054760;28;20041;-65
2022/03/19 08:36:17;;;;;;;14.77;4.78;;;;;;;;;;5054714;28;20047;-64
2022/03/19 08:41:28;;;;;;;16.60;4.03;;;;;;;;;;5055477;28;20134;-65
2022/03/19 08:43:54;;;;;;;10.40;3.88;;;;;;;;;;5055621;28;20048;-65
2022/03/19 08:46:20;;;;;;;11.73;4.65;;;;;;;;;;5053323;28;20048;-65
2022/03/19 08:48:46;;;;;;;11.13;3.92;;;;;;;;;;5048226;28;20039;-66
2022/03/19 08:53:59;;;;;;;9.63;3.70;;;;;;;;;;5053744;28;20418;-61
2022/03/19 08:56:25;;;;;;;7.40;3.28;;;;;;;;;;5054001;28;20108;-62
2022/03/19 08:58:51;;;;;;;12.07;3.58;;;;;;;;;;5054256;28;20482;-63
2022/03/19 09:01:19;;;;;;;11.27;3.60;;;;;;;;;;5054033;28;20083;-63
2022/03/19 09:03:45;;;;;;;9.23;3.17;;;;;;;;;;5054345;28;20087;-63
2022/03/19 09:06:14;;;;;;;7.78;3.35;;;;;;;;;;5054021;28;20044;-63
2022/03/19 09:08:41;;;;;;;9.63;3.20;;;;;;;;;;5059239;28;20056;-66
2022/03/19 09:11:07;;;;;;;12.82;4.05;;;;;;;;;;5054284;28;20530;-65
2022/03/19 09:13:33;;;;;;;9.02;3.28;;;;;;;;;;5055261;28;20110;-65
2022/03/19 09:15:59;;;;;;;8.38;3.00;;;;;;;;;;5049918;28;20087;-62
2022/03/19 09:18:26;;;;;;;8.15;3.25;;;;;;;;;;5044582;28;20090;-65
2022/03/19 09:20:52;;;;;;;8.30;3.00;;;;;;;;;;5043731;28;20055;-64
2022/03/19 09:23:18;;;;;;;7.40;2.85;;;;;;;;;;5041454;28;20087;-65
2022/03/19 09:25:44;;;;;;;9.63;2.83;;;;;;;;;;5046646;28;20040;-64
2022/03/19 09:28:11;;;;;;;8.10;2.92;;;;;;;;;;5053292;28;20037;-64
2022/03/19 09:30:37;;;;;;;31.13;4.13;;;;;;;;;;5068113;28;20520;-64
2022/03/19 09:33:03;;;;;;;5.68;2.35;;;;;;;;;;5053955;28;20041;-65
2022/03/19 09:35:29;;;;;;;9.48;3.00;;;;;;;;;;5053586;28;20063;-66
2022/03/19 09:37:55;;;;;;;8.02;2.70;;;;;;;;;;5053003;28;20111;-65
2022/03/19 09:40:21;;;;;;;6.68;2.40;;;;;;;;;;5053032;28;20445;-65
2022/03/19 09:42:49;;;;;;;7.03;2.67;;;;;;;;;;5042774;28;20041;-65
2022/03/19 09:45:16;;;;;;;7.40;2.70;;;;;;;;;;5039453;28;20125;-65
2022/03/19 09:47:42;;;;;;;7.28;2.70;;;;;;;;;;5045468;28;20037;-66
2022/03/19 09:50:08;;;;;;;10.32;2.95;;;;;;;;;;5045936;28;20033;-65
2022/03/19 09:52:36;;;;;;;7.60;2.42;;;;;;;;;;5045143;28;20490;-65
2022/03/19 09:55:03;;;;;;;5.70;2.38;;;;;;;;;;5040107;28;20044;-66
2022/03/19 09:57:29;;;;;;;5.22;2.25;;;;;;;;;;5053678;28;20111;-65
2022/03/19 09:59:55;;;;;;;9.27;2.42;;;;;;;;;;5052876;28;20098;-66
2022/03/19 10:02:21;;;;;;;5.70;2.55;;;;;;;;;;5052388;28;20056;-66
2022/03/19 10:08:35;;;;;;;7.03;2.67;;;;;;;;;;5045303;28;20044;-66
2022/03/19 10:10:40;;;;;;;7.07;2.75;;;;;;;;;;5052629;28;20128;-65
2022/03/19 10:13:12;;;;;;;6.20;3.15;;;;;;;;;;5028213;28;20045;-66
2022/03/19 10:15:41;;;;;;;6.60;2.55;;;;;;;;;;5044040;28;20033;-67
2022/03/19 10:18:10;;;;;;;8.30;2.83;;;;;;;;;;5041355;28;20037;-66
2022/03/19 10:20:37;;;;;;;7.90;2.80;;;;;;;;;;5045678;28;20043;-67
2022/03/19 10:23:04;;;;;;;5.78;2.75;;;;;;;;;;5042085;28;20375;-67
2022/03/19 10:25:31;;;;;;;6.82;2.80;;;;;;;;;;5050144;28;20123;-66
2022/03/19 10:28:01;;;;;;;6.50;2.67;;;;;;;;;;5041893;28;20045;-67
2022/03/19 10:30:34;;;;;;;8.18;2.85;;;;;;;;;;5047608;28;20044;-66
2022/03/19 10:33:00;;;;;;;;;;;;;;;;;;5044835;28;20435;-66
2022/03/19 10:35:31;;;;;;;5.78;2.00;;;;;;;;;;5043091;28;19925;-66
2022/03/19 10:37:58;;;;;;;6.45;2.45;;;;;;;;;;5043554;28;20127;-66
2022/03/19 10:40:36;;;;;;;5.65;2.50;;;;;;;;;;5041410;28;20541;-66
2022/03/19 10:43:02;;;;;;;38.15;4.22;;;;;;;;;;5042673;28;20037;-66
2022/03/19 10:45:28;;;;;;;5.97;2.10;;;;;;;;;;5040800;28;20091;-67
2022/03/19 10:47:54;;;;;;;7.47;2.33;;;;;;;;;;5035394;28;20044;-66
2022/03/19 10:50:21;;;;;;;6.35;2.13;;;;;;;;;;5042453;28;20036;-66
2022/03/19 10:52:48;;;;;;;5.28;1.98;;;;;;;;;;5050346;28;20166;-66
2022/03/19 10:55:15;;;;;;;4.30;1.88;;;;;;;;;;5050710;28;20045;-66
2022/03/19 10:57:41;;;;;;;5.88;2.00;;;;;;;;;;5031406;28;20051;-66
2022/03/19 11:00:08;;;;;;;4.70;1.88;;;;;;;;;;5047407;28;20041;-66
2022/03/19 11:02:35;;;;;;;3.30;1.77;;;;;;;;;;5048116;28;20029;-66
2022/03/19 11:05:02;;;;;;;5.70;1.63;;;;;;;;;;5045289;28;20044;-65
2022/03/19 11:07:32;;;;;;;4.80;1.50;;;;;;;;;;5051592;28;20102;-63
2022/03/19 11:09:59;;;;;;;8.00;1.98;;;;;;;;;;5051440;28;20033;-63
2022/03/19 11:12:31;;;;;;;50.78;6.32;;;;;;;;;;5047710;28;20041;-64
2022/03/19 11:14:58;;;;;;;3.85;1.73;;;;;;;;;;5044245;28;20039;-63
2022/03/19 11:17:30;;;;;;;4.40;1.75;;;;;;;;;;5039898;28;20046;-63
2022/03/19 11:20:07;;;;;;;3.40;1.85;;;;;;;;;;5046738;28;20095;-62
2022/03/19 11:22:41;;;;;;;4.78;2.00;;;;;;;;;;5036608;28;20041;-63
2022/03/19 11:25:22;;;;;;;5.57;1.90;;;;;;;;;;5033095;28;20490;-65
2022/03/19 11:27:49;;;;;;;7.00;2.40;;;;;;;;;;5050994;28;20036;-65
2022/03/19 11:30:22;;;;;;;4.85;2.10;;;;;;;;;;5051743;28;20037;-64
2022/03/19 11:33:05;;;;;;;3.08;1.88;;;;;;;;;;5051060;28;20395;-65
2022/03/19 11:35:33;;;;;;;5.20;2.20;;;;;;;;;;5051510;28;20033;-67
2022/03/19 11:38:04;;;;;;;5.30;2.00;;;;;;;;;;5050384;28;20433;-65
2022/03/19 11:40:32;;;;;;;3.92;1.77;;;;;;;;;;5051176;28;20094;-64
2022/03/19 11:43:01;;;;;;;3.55;1.63;;;;;;;;;;5040217;28;20387;-64
2022/03/19 11:45:27;;;;;;;3.08;1.58;;;;;;;;;;5044381;28;20037;-64
2022/03/19 11:47:53;;;;;;;2.90;1.33;;;;;;;;;;5037806;28;20798;-64
2022/03/19 11:50:23;;;;;;;4.30;1.60;;;;;;;;;;5034825;28;20034;-64
2022/03/19 11:52:49;;;;;;;4.85;1.80;;;;;;;;;;5033136;28;20445;-64
2022/03/19 11:55:19;;;;;;;3.95;2.08;;;;;;;;;;5051536;28;20048;-64
2022/03/19 11:57:55;;;;;;;3.15;1.70;;;;;;;;;;5048730;28;20041;-64
2022/03/19 12:00:24;;;;;;;4.97;2.15;;;;;;;;;;5050651;28;20544;-65
2022/03/19 12:03:03;;;;;;;3.72;1.80;;;;;;;;;;5050913;28;20112;-65
2022/03/19 12:05:29;;;;;;;3.25;1.90;;;;;;;;;;5050707;28;20045;-64
2022/03/19 12:07:59;;;;;;;4.00;2.30;;;;;;;;;;5046658;28;20041;-64
2022/03/19 12:10:26;;;;;;;5.13;2.20;;;;;;;;;;5036640;28;20037;-64
2022/03/19 12:12:53;;;;;;;4.22;1.77;;;;;;;;;;5041081;28;20041;-62
2022/03/19 12:15:33;;;;;;;2.78;1.55;;;;;;;;;;5047416;28;20044;-65
2022/03/19 12:18:17;;;;;;;3.25;1.90;;;;;;;;;;5044610;28;20037;-66
2022/03/19 12:20:44;;;;;;;4.57;1.90;;;;;;;;;;5036860;28;20036;-65
2022/03/19 12:23:12;;;;;;;3.95;1.88;;;;;;;;;;5038677;28;20422;-65
2022/03/19 12:25:42;;;;;;;4.80;1.98;;;;;;;;;;5039190;28;20049;-66
2022/03/19 12:28:08;;;;;;;3.70;1.92;;;;;;;;;;5024844;28;20045;-65
2022/03/19 12:30:35;;;;;;;3.88;1.80;;;;;;;;;;5046778;28;20116;-65
2022/03/19 12:33:02;;;;;;;3.33;2.20;;;;;;;;;;5050084;28;20033;-64
2022/03/19 12:35:38;;;;;;;5.13;1.73;;;;;;;;;;5050218;28;20083;-65
2022/03/19 12:38:04;;;;;;;2.78;1.67;;;;;;;;;;5050661;28;20417;-64
2022/03/19 12:41:23;;;;;;;3.42;1.80;;;;;;;;;;5050186;28;20405;-64
2022/03/19 12:43:18;;;;;;;3.83;1.65;;;;;;;;;;5041620;28;20561;-64
2022/03/19 12:45:49;;;;;;;3.00;1.63;;;;;;;;;;5043887;28;20267;-64
2022/03/19 12:48:22;;;;;;;3.15;1.75;;;;;;;;;;5047687;28;20065;-63
2022/03/19 12:50:53;;;;;;;3.95;1.75;;;;;;;;;;5048335;28;20073;-63
2022/03/19 12:53:29;;;;;;;2.45;1.70;;;;;;;;;;5051099;28;20521;-63
2022/03/19 12:58:47;;;;;;;3.28;1.55;;;;;;;;;;3382739;26;20056;-85
2022/03/19 13:01:36;;;;;;;2.92;1.67;;;;;;;;;;5049975;28;20067;-85
2022/03/19 13:08:29;;;;;;;3.70;1.55;;;;;;;;;;4995598;28;20054;-82
2022/03/19 13:11:32;;;;;;;3.78;1.65;;;;;;;;;;4958903;28;20131;-82
2022/03/19 13:14:26;;;;;;;2.50;1.42;;;;;;;;;;4936006;28;20054;-82
2022/03/19 13:17:20;;;;;;;4.55;2.15;;;;;;;;;;4923351;29;20453;-82
2022/03/19 13:20:25;;;;;;;3.63;1.80;;;;;;;;;;4993392;28;20065;-82
2022/03/19 13:26:46;;;;;;;4.80;2.03;;;;;;;;;;5007379;28;20045;-84
2022/03/19 13:30:15;;;;;;;4.50;2.13;;;;;;;;;;5018132;28;20042;-82
2022/03/19 13:33:11;;;;;;;3.90;1.83;;;;;;;;;;4980050;28;20041;-82
2022/03/19 13:36:08;;;;;;;2.63;1.52;;;;;;;;;;5020419;28;20068;-82
2022/03/19 13:39:41;;;;;;;4.28;1.45;;;;;;;;;;4977563;28;20049;-82
2022/03/19 13:42:46;;;;;;;4.80;2.15;;;;;;;;;;4976252;28;20074;-82
2022/03/19 13:45:16;;;;;;;3.63;1.60;;;;;;;;;;4957631;29;20035;-82
2022/03/19 13:47:46;;;;;;;5.03;2.10;;;;;;;;;;4959221;28;20537;-83
2022/03/19 13:50:15;;;;;;;3.70;2.00;;;;;;;;;;5025748;28;20091;-84
2022/03/19 13:52:46;;;;;;;3.90;2.03;;;;;;;;;;5041884;28;20087;-82
2022/03/19 13:55:21;;;;;;;3.05;1.70;;;;;;;;;;5044135;28;20077;-81
2022/03/19 13:57:48;;;;;;;3.50;2.10;;;;;;;;;;5054693;28;20614;-84
2022/03/19 14:00:14;;;;;;;4.75;2.03;;;;;;;;;;5049158;28;20041;-84
2022/03/19 14:02:42;;;;;;;4.20;1.70;;;;;;;;;;5049073;28;20041;-84
2022/03/19 14:05:11;;;;;;;3.30;1.85;;;;;;;;;;5027139;28;20048;-84
2022/03/19 14:07:39;;;;;;;5.95;2.33;;;;;;;;;;5022577;28;20041;-85
2022/03/19 14:10:05;;;;;;;5.45;1.80;;;;;;;;;;5040684;28;20045;-84
2022/03/19 14:12:54;;;;;;;5.10;2.42;;;;;;;;;;5041200;28;20033;-82
2022/03/19 14:15:20;;;;;;;4.55;1.83;;;;;;;;;;5017150;28;20046;-82
2022/03/19 14:17:47;;;;;;;4.03;1.80;;;;;;;;;;5037821;28;20041;-83
2022/03/19 14:20:14;;;;;;;4.85;1.73;;;;;;;;;;5035588;28;20393;-83
2022/03/19 14:22:40;;;;;;;2.90;1.77;;;;;;;;;;5031470;28;20424;-84
2022/03/19 14:25:08;;;;;;;4.57;1.75;;;;;;;;;;5020904;28;20461;-84
2022/03/19 14:28:14;;;;;;;3.10;1.80;;;;;;;;;;5036037;28;20084;-85
2022/03/19 14:30:58;;;;;;;;;;;;;;;;;;5042176;28;20431;-84
2022/03/19 14:33:28;;;;;;;4.47;1.65;;;;;;;;;;5019787;28;19935;-83
2022/03/19 14:35:59;;;;;;;4.43;2.00;;;;;;;;;;5024977;28;20526;-83
2022/03/19 14:41:53;;;;;;;4.10;1.58;;;;;;;;;;5056690;28;20047;-85
2022/03/19 14:51:34;;;;;;;2.80;1.42;;;;;;;;;;5054459;28;20056;-85
2022/03/19 14:54:20;;;;;;;3.22;1.20;;;;;;;;;;5030615;28;20041;-84
2022/03/19 14:57:07;;;;;;;2.20;1.40;;;;;;;;;;5034614;28;20523;-85
2022/03/19 15:00:18;;;;;;;3.60;1.38;;;;;;;;;;5009535;28;20045;-83
2022/03/19 15:02:56;;;;;;;5.25;1.63;;;;;;;;;;5060243;28;20052;-84
2022/03/19 15:08:21;;;;;;;2.08;1.30;;;;;;;;;;5057453;28;20041;-84
2022/03/19 15:10:48;;;;;;;3.67;1.20;;;;;;;;;;5039375;28;20120;-86
2022/03/19 15:13:27;;;;;;;4.22;1.67;;;;;;;;;;5023701;28;20036;-85
2022/03/19 15:15:55;;;;;;;4.35;1.55;;;;;;;;;;5046827;28;20041;-86
2022/03/19 15:18:21;;;;;;;3.50;1.40;;;;;;;;;;5025179;28;20045;-85
2022/03/19 15:20:47;;;;;;;4.57;1.50;;;;;;;;;;5041620;28;20123;-84
2022/03/19 15:23:13;;;;;;;3.65;1.40;;;;;;;;;;5041693;28;20056;-84
2022/03/19 15:25:40;;;;;;;2.58;1.50;;;;;;;;;;5043353;28;20114;-84
2022/03/19 15:28:10;;;;;;;5.22;1.48;;;;;;;;;;5043051;28;20120;-84
2022/03/19 15:30:36;;;;;;;5.03;1.65;;;;;;;;;;5043309;28;20707;-84